Terminal Aerodrome Forecast
Issued by NWS

Home | Current Version | Previous Version | Text Only | Print | Product List | Glossary On
Versions: 1 2 3 4 5 6 7 8 9 10 11 12 13
000
FTUS45 KFGZ 170500
TAFSEZ
TAF
KSEZ 170540Z 1706/1806 04010KT P6SM SKC
     FM171600 VRB05KT P6SM SKC
     FM172000 19008KT P6SM SKC
     FM180200 04009KT P6SM FEW250=

USA.gov is the U.S. government's official web portal to all federal, state and local government web resources and services.